AGGH/HIR METAR and TAF weather

Enter ICAO airport designator
Station Type Date Time Source
AGGH METAR 2021/09/27 08:00 UTC NOAA

AGGH 270800Z 11006KT 9999 FEW016 SCT026 BKN100 26/23 Q1008


Station Type Date Time Source
AGGH Decoded METAR 2021/09/27 08:00 UTC NOAA

Honiara / Henderson, Solomon Islands (AGGH) 09-25S 160-03E 9M
Sep 27, 2021 - 04:00 AM EDT / 2021.09.27 0800 UTC
Wind: from the ESE (110 degrees) at 7 MPH (6 KT):0
Visibility: greater than 7 mile(s):0
Sky conditions: mostly cloudy
Temperature: 78 F (26 C)
Dew Point: 73 F (23 C)
Relative Humidity: 83%
Pressure (altimeter): 29.77 in. Hg (1008 hPa)
ob: AGGH 270800Z 11006KT 9999 FEW016 SCT026 BKN100 26/23 Q1008
cycle: 8

Station Type Date Time Source
AGGH TAF 2021/09/27 06:21 UTC NOAA

TAF TAF AGGH 270505Z 2706/2806 05010KT 9999 FEW018 BKN100 T 28 24 23 23 Q 1006 1008 1009 1007

Example: see airport list